createdAt,value
2018-10-02T00:04:13.159Z,8.9
2018-10-02T00:09:13.154Z,9
2018-10-02T00:14:13.270Z,8.9
2018-10-02T00:19:25.555Z,8.9
2018-10-02T00:24:25.338Z,9
2018-10-02T00:29:25.505Z,9
2018-10-02T00:34:25.412Z,9
2018-10-02T00:39:25.454Z,9
2018-10-02T00:44:25.480Z,9
2018-10-02T00:49:25.524Z,9
2018-10-02T00:54:28.717Z,9
2018-10-02T00:59:28.460Z,9
2018-10-02T01:04:41.009Z,9
2018-10-02T01:09:40.745Z,9
2018-10-02T01:14:40.741Z,9
2018-10-02T01:19:40.977Z,9
2018-10-02T01:24:40.913Z,9
2018-10-02T01:29:40.742Z,9
2018-10-02T01:34:41.068Z,9
2018-10-02T01:39:46.412Z,9
2018-10-02T01:44:46.261Z,9
2018-10-02T01:49:58.641Z,9
2018-10-02T01:54:58.507Z,9
2018-10-02T01:59:58.552Z,9
2018-10-02T02:04:58.481Z,9
2018-10-02T02:09:58.512Z,9
2018-10-02T02:14:58.378Z,9
2018-10-02T02:19:58.486Z,9
2018-10-02T02:24:58.368Z,9
2018-10-02T02:29:58.492Z,8.9
2018-10-02T02:35:10.597Z,8.9
2018-10-02T02:40:10.328Z,8.9
2018-10-02T02:45:10.545Z,8.9
2018-10-02T02:50:10.452Z,8.9
2018-10-02T02:55:10.503Z,8.9
2018-10-02T03:00:10.314Z,8.8
2018-10-02T03:05:10.450Z,8.8
2018-10-02T03:10:11.174Z,8.7
2018-10-02T03:15:11.032Z,8.7
2018-10-02T03:20:23.798Z,8.7
2018-10-02T03:25:23.900Z,8.7
2018-10-02T03:30:23.560Z,8.6
2018-10-02T03:35:23.552Z,8.6
2018-10-02T03:40:23.581Z,8.6
2018-10-02T03:45:23.741Z,8.6
2018-10-02T03:50:23.684Z,8.6
2018-10-02T03:55:23.692Z,8.5
2018-10-02T04:00:23.723Z,8.5
2018-10-02T04:05:35.968Z,8.5
2018-10-02T04:10:35.824Z,8.4
2018-10-02T04:15:35.820Z,8.4
2018-10-02T04:20:35.900Z,8.4
2018-10-02T04:25:35.825Z,8.4
2018-10-02T04:30:35.753Z,8.3
2018-10-02T04:35:35.954Z,8.3
2018-10-02T04:40:35.975Z,8.2
2018-10-02T04:45:36.043Z,8.2
2018-10-02T04:50:35.825Z,8.2
2018-10-02T04:55:35.994Z,8.2
2018-10-02T05:00:35.830Z,8.1
2018-10-02T05:05:35.826Z,8.1
2018-10-02T05:10:35.835Z,8.1
2018-10-02T05:15:47.070Z,8.1
2018-10-02T05:20:46.847Z,8.1
2018-10-02T05:25:46.945Z,8.1
2018-10-02T05:30:46.956Z,8
2018-10-02T05:35:46.816Z,8
2018-10-02T05:40:46.979Z,8
2018-10-02T05:45:46.975Z,8
2018-10-02T05:50:47.107Z,8
2018-10-02T05:55:47.265Z,8.1
2018-10-02T06:00:59.881Z,8.1
2018-10-02T06:05:59.831Z,8.2
2018-10-02T06:10:59.599Z,8.2
2018-10-02T06:15:59.594Z,8.2
2018-10-02T06:20:59.820Z,8.3
2018-10-02T06:25:59.615Z,8.3
2018-10-02T06:30:59.741Z,8.4
2018-10-02T06:35:59.823Z,8.5
2018-10-02T06:40:59.850Z,8.8
2018-10-02T06:45:59.780Z,8.6
2018-10-02T06:50:59.920Z,8.8
2018-10-02T06:56:00.769Z,8.9
2018-10-02T07:01:00.138Z,8.9
2018-10-02T07:06:00.017Z,9
2018-10-02T07:11:12.611Z,9.2
2018-10-02T07:16:12.326Z,9.5
2018-10-02T07:21:12.514Z,9.8
2018-10-02T07:26:12.556Z,9.3
2018-10-02T07:31:12.346Z,8.9
2018-10-02T07:36:12.329Z,8.9
2018-10-02T07:41:12.547Z,9
2018-10-02T07:46:12.358Z,9.1
2018-10-02T07:51:12.340Z,9
2018-10-02T07:56:24.790Z,9.6
2018-10-02T08:01:24.660Z,9.5
2018-10-02T08:06:24.712Z,9.5
2018-10-02T08:11:24.547Z,9.5
2018-10-02T08:16:24.523Z,9.5
2018-10-02T08:21:24.505Z,9.2
2018-10-02T08:26:24.754Z,9.4
2018-10-02T08:31:29.363Z,9.7
2018-10-02T08:36:29.350Z,10.1
2018-10-02T08:41:41.539Z,9.4
2018-10-02T08:46:41.350Z,9.5
2018-10-02T08:51:41.267Z,9.6
2018-10-02T08:56:41.381Z,9.8
2018-10-02T09:01:41.463Z,10.3
2018-10-02T09:06:41.288Z,10.4
2018-10-02T09:11:44.931Z,10.6
2018-10-02T09:16:43.307Z,10.9
2018-10-02T09:21:43.226Z,10.9
2018-10-02T09:26:56.357Z,10.8
2018-10-02T09:31:56.328Z,10.8
2018-10-02T09:36:56.203Z,10.8
2018-10-02T09:41:56.270Z,10.8
2018-10-02T09:46:56.193Z,11.1
2018-10-02T09:51:56.232Z,10.9
2018-10-02T09:56:56.324Z,10.8
2018-10-02T10:01:56.303Z,10.6
2018-10-02T10:06:56.230Z,10.9
2018-10-02T10:11:56.276Z,10.7
2018-10-02T10:16:56.135Z,10.4
2018-10-02T10:21:56.229Z,10.3
2018-10-02T10:26:56.271Z,10.1
2018-10-02T10:31:56.119Z,10.4
2018-10-02T10:36:56.441Z,10.9
2018-10-02T10:41:56.365Z,10.9
2018-10-02T10:46:56.466Z,10.9
2018-10-02T10:51:58.763Z,10.7
2018-10-02T10:56:58.466Z,11.1
2018-10-02T11:02:10.670Z,11.2
2018-10-02T11:07:10.529Z,11.2
2018-10-02T11:12:10.507Z,11.1
2018-10-02T11:17:10.540Z,10.9
2018-10-02T11:22:10.562Z,10.7
2018-10-02T11:27:10.405Z,10.7
2018-10-02T11:32:10.513Z,10.6
2018-10-02T11:37:12.548Z,10.5
2018-10-02T11:42:12.252Z,10.6
2018-10-02T11:47:25.095Z,10.7
2018-10-02T11:52:24.829Z,11.2
2018-10-02T11:57:25.066Z,11.6
2018-10-02T12:02:24.889Z,11.6
2018-10-02T12:07:24.994Z,11.5
2018-10-02T12:12:25.279Z,11.2
2018-10-02T12:17:25.281Z,11.2
2018-10-02T12:22:25.320Z,11.1
2018-10-02T12:27:25.550Z,11.7
2018-10-02T12:32:36.912Z,12
2018-10-02T12:37:36.633Z,12.3
2018-10-02T12:42:36.641Z,12.1
2018-10-02T12:47:37.902Z,12.2
2018-10-02T12:52:36.806Z,12
2018-10-02T12:57:36.710Z,11.7
2018-10-02T13:02:36.852Z,12.1
2018-10-02T13:07:36.906Z,12.3
2018-10-02T13:12:36.921Z,12
2018-10-02T13:17:48.924Z,11.8
2018-10-02T13:22:48.668Z,11.8
2018-10-02T13:27:48.670Z,11.9
2018-10-02T13:32:48.818Z,11.8
2018-10-02T13:37:48.735Z,11.7
2018-10-02T13:42:48.745Z,11.6
2018-10-02T13:47:48.861Z,11.6
2018-10-02T13:52:48.733Z,11.9
2018-10-02T13:57:48.861Z,12
2018-10-02T14:03:00.001Z,11.8
2018-10-02T14:07:59.731Z,11.7
2018-10-02T14:12:59.736Z,11.6
2018-10-02T14:17:59.879Z,11.6
2018-10-02T14:22:59.930Z,11.7
2018-10-02T14:27:59.743Z,11.8
2018-10-02T14:32:59.878Z,12
2018-10-02T14:38:01.341Z,12.1
2018-10-02T14:43:01.328Z,12.3
2018-10-02T14:48:14.017Z,12.3
2018-10-02T14:53:12.762Z,12.3
2018-10-02T14:58:12.750Z,12.3
2018-10-02T15:03:12.798Z,12.1
2018-10-02T15:08:12.778Z,12.1
2018-10-02T15:13:12.765Z,12.2
2018-10-02T15:18:12.785Z,12.1
2018-10-02T15:23:12.776Z,12
2018-10-02T15:28:12.806Z,11.9
2018-10-02T15:33:12.787Z,11.8
2018-10-02T15:38:12.818Z,11.8
2018-10-02T15:43:12.816Z,11.8
2018-10-02T15:48:13.364Z,11.7
2018-10-02T15:53:13.158Z,11.7
2018-10-02T15:58:25.363Z,11.6
2018-10-02T16:03:25.116Z,11.6
2018-10-02T16:08:25.079Z,11.6
2018-10-02T16:13:25.168Z,11.6
2018-10-02T16:18:25.285Z,11.6
2018-10-02T16:23:25.211Z,11.5
2018-10-02T16:28:25.176Z,11.4
2018-10-02T16:33:25.835Z,11.4
2018-10-02T16:38:25.511Z,11.3
2018-10-02T16:43:37.597Z,11.2
2018-10-02T16:48:37.297Z,11.2
2018-10-02T16:53:37.354Z,11.1
2018-10-02T16:58:37.351Z,11
2018-10-02T17:03:37.598Z,11
2018-10-02T17:08:39.695Z,11
2018-10-02T17:13:39.432Z,11
2018-10-02T17:18:39.391Z,10.9
2018-10-02T17:23:39.457Z,10.9
2018-10-02T17:28:39.556Z,10.8
2018-10-02T17:33:39.549Z,10.8
2018-10-02T17:38:39.437Z,10.7
2018-10-02T17:43:44.156Z,10.7
2018-10-02T17:48:43.884Z,10.7
2018-10-02T17:53:55.930Z,10.7
2018-10-02T17:58:55.629Z,10.6
2018-10-02T18:03:55.636Z,10.6
2018-10-02T18:08:55.625Z,10.6
2018-10-02T18:13:55.625Z,10.5
2018-10-02T18:18:55.711Z,10.5
2018-10-02T18:23:55.614Z,10.5
2018-10-02T18:28:55.646Z,10.5
2018-10-02T18:33:55.700Z,10.5
2018-10-02T18:39:06.756Z,10.5
2018-10-02T18:44:06.487Z,10.5
2018-10-02T18:49:06.540Z,10.5
2018-10-02T18:54:06.472Z,10.5
2018-10-02T18:59:06.567Z,10.5
2018-10-02T19:04:07.407Z,10.6
2018-10-02T19:09:06.722Z,10.6
2018-10-02T19:14:13.626Z,10.6
2018-10-02T19:19:13.361Z,10.7
2018-10-02T19:24:23.456Z,10.7
2018-10-02T19:29:23.176Z,10.7
2018-10-02T19:34:23.201Z,10.7
2018-10-02T19:39:23.287Z,10.7
2018-10-02T19:44:23.239Z,10.7
2018-10-02T19:49:23.419Z,10.7
2018-10-02T19:54:23.282Z,10.8
2018-10-02T19:59:26.272Z,10.9
2018-10-02T20:04:26.065Z,10.9
2018-10-02T20:09:38.236Z,10.9
2018-10-02T20:14:38.178Z,11
2018-10-02T20:19:38.194Z,11
2018-10-02T20:24:37.969Z,11
2018-10-02T20:29:38.152Z,11
2018-10-02T20:34:37.984Z,11
2018-10-02T20:39:37.978Z,11.1
2018-10-02T20:44:37.966Z,11.1
2018-10-02T20:49:38.070Z,11.2
2018-10-02T20:54:50.027Z,11.2
2018-10-02T20:59:49.722Z,11.3
2018-10-02T21:04:49.755Z,11.3
2018-10-02T21:09:49.745Z,11.3
2018-10-02T21:14:49.758Z,11.4
2018-10-02T21:19:49.774Z,11.4
2018-10-02T21:24:49.743Z,11.4
2018-10-02T21:29:49.791Z,11.4
2018-10-02T21:34:49.973Z,11.5
2018-10-02T21:39:49.939Z,11.5
2018-10-02T21:44:49.796Z,11.5
2018-10-02T21:49:49.774Z,11.5
2018-10-02T21:54:50.433Z,11.5
2018-10-02T21:59:50.338Z,11.5
2018-10-02T22:05:02.271Z,11.4
2018-10-02T22:10:02.000Z,11.4
2018-10-02T22:15:02.000Z,11.4
2018-10-02T22:20:01.971Z,11.3
2018-10-02T22:25:02.283Z,11.3
2018-10-02T22:30:02.320Z,11.2
2018-10-02T22:35:02.163Z,11.1
2018-10-02T22:40:02.175Z,11.1
2018-10-02T22:45:02.136Z,11
2018-10-02T22:50:14.425Z,11
2018-10-02T22:55:14.147Z,10.9
2018-10-02T23:00:14.290Z,10.9
2018-10-02T23:05:14.156Z,10.9
2018-10-02T23:10:14.169Z,10.9
2018-10-02T23:15:14.164Z,10.9
2018-10-02T23:20:14.450Z,10.9
2018-10-02T23:25:19.416Z,10.9
2018-10-02T23:30:19.320Z,10.9
2018-10-02T23:35:19.349Z,10.9
2018-10-02T23:40:19.155Z,10.9
2018-10-02T23:45:19.170Z,10.9
2018-10-02T23:50:21.333Z,10.9
2018-10-02T23:55:21.068Z,10.9
